PWSweather.com
Personal Weather Stations
Station Observations
SEANO
CarmignanoIT

CarmignanoIT

Lat: 43.829667, Lon: 11.02622

Elevation: 142

Station Type: Davis Vantage Pro2

http://www.meteoseano.it

Latest ConditionsUpdated 8:00:00 AM GMT+01:01 Wednesday, Jun 26, 2019
Currently Today's Max Today's Min Today's Average
Temperature 85.9°F29.9°C 85.9°F29.9°C 70.6°F21.4°C 75.8°F24.3°C
Dew Point 64.6°F18.1°C 66.2°F19.0°C 61.3°F16.3°C 63.8°F17.7°C
Winds 2.3 mph ESE3.7 kmh ESE 4.6 mph -7.4 kmh - - 1.4 mph 2.3 kmh
Wind Gusts 3.5 mph5.6 kmh 5.8 mph9.3 kmh - -
Humidity 49% 75% 49% 67%
Pressure 30.15 in1021.0 mb 30.16 in1021.3 mb 30.14 in1020.7 mb -
Hour Temp Dew Point Humidity Winds Wind Gusts Pressure Precip Precip Rate Daily Precip Total
08:00 AM 85.9°F29.9°C 64.6°F18.1°C 49% 2.3 mph ESE3.7 kmh ESE 3.5 mph5.6 kmh 30.15 in1021.0 mb - 0.00 in0.0 mm 0.00 in0.0 mm
07:55 AM 85.4°F29.7°C 64.0°F17.8°C 49% Calm Calm 3.5 mph5.6 kmh 30.15 in1021.0 mb - 0.00 in0.0 mm 0.00 in0.0 mm
07:50 AM 85.0°F29.4°C 64.3°F17.9°C 50% 1.2 mph E1.9 kmh E 3.5 mph5.6 kmh 30.15 in1021.0 mb - 0.00 in0.0 mm 0.00 in0.0 mm
07:45 AM 84.7°F29.3°C 64.0°F17.8°C 50% 1.2 mph E1.9 kmh E 2.3 mph3.7 kmh 30.15 in1021.0 mb - 0.00 in0.0 mm 0.00 in0.0 mm
07:40 AM 84.4°F29.1°C 64.3°F17.9°C 51% 3.5 mph E5.6 kmh E 3.5 mph5.6 kmh 30.15 in1021.0 mb - 0.00 in0.0 mm 0.00 in0.0 mm
07:35 AM 84.0°F28.9°C 64.5°F18.1°C 52% 3.5 mph E5.6 kmh E 4.6 mph7.4 kmh 30.16 in1021.3 mb - 0.00 in0.0 mm 0.00 in0.0 mm
07:30 AM 83.4°F28.6°C 64.5°F18.1°C 53% Calm Calm 2.3 mph3.7 kmh 30.15 in1021.0 mb - 0.00 in0.0 mm 0.00 in0.0 mm
07:25 AM 83.1°F28.4°C 65.3°F18.5°C 55% 1.2 mph NW1.9 kmh NW 2.3 mph3.7 kmh 30.15 in1021.0 mb - 0.00 in0.0 mm 0.00 in0.0 mm
07:20 AM 83.0°F28.3°C 65.2°F18.4°C 55% 2.3 mph NW3.7 kmh NW 3.5 mph5.6 kmh 30.15 in1021.0 mb - 0.00 in0.0 mm 0.00 in0.0 mm
07:15 AM 82.6°F28.1°C 64.8°F18.2°C 55% Calm Calm 1.2 mph1.9 kmh 30.15 in1021.0 mb - 0.00 in0.0 mm 0.00 in0.0 mm
07:10 AM 82.0°F27.8°C 64.3°F17.9°C 55% 1.2 mph E1.9 kmh E 2.3 mph3.7 kmh 30.15 in1021.0 mb - 0.00 in0.0 mm 0.00 in0.0 mm
07:00 AM 80.9°F27.2°C 63.8°F17.7°C 56% 2.3 mph E3.7 kmh E 3.5 mph5.6 kmh 30.15 in1021.0 mb - 0.00 in0.0 mm 0.00 in0.0 mm
06:55 AM 80.2°F26.8°C 63.1°F17.3°C 56% 1.2 mph E1.9 kmh E 2.3 mph3.7 kmh 30.15 in1021.0 mb - 0.00 in0.0 mm 0.00 in0.0 mm
06:50 AM 79.3°F26.3°C 63.8°F17.7°C 59% 1.2 mph E1.9 kmh E 3.5 mph5.6 kmh 30.15 in1021.0 mb - 0.00 in0.0 mm 0.00 in0.0 mm
06:45 AM 78.6°F25.9°C 64.5°F18.1°C 62% 1.2 mph ESE1.9 kmh ESE 2.3 mph3.7 kmh 30.15 in1021.0 mb - 0.00 in0.0 mm 0.00 in0.0 mm
06:40 AM 77.6°F25.3°C 66.2°F19.0°C 68% 1.2 mph W1.9 kmh W 3.5 mph5.6 kmh 30.15 in1021.0 mb - 0.00 in0.0 mm 0.00 in0.0 mm
06:35 AM 76.6°F24.8°C 65.7°F18.7°C 69% Calm Calm 2.3 mph3.7 kmh 30.15 in1021.0 mb - 0.00 in0.0 mm 0.00 in0.0 mm
06:30 AM 75.9°F24.4°C 65.4°F18.6°C 70% Calm Calm 1.2 mph1.9 kmh 30.15 in1021.0 mb - 0.00 in0.0 mm 0.00 in0.0 mm
06:25 AM 75.4°F24.1°C 64.9°F18.3°C 70% Calm Calm -- 30.15 in1021.0 mb - 0.00 in0.0 mm 0.00 in0.0 mm
06:20 AM 75.1°F23.9°C 64.6°F18.1°C 70% Calm Calm -- 30.15 in1021.0 mb - 0.00 in0.0 mm 0.00 in0.0 mm
06:15 AM 74.6°F23.7°C 64.9°F18.3°C 72% Calm Calm 1.2 mph1.9 kmh 30.15 in1021.0 mb - 0.00 in0.0 mm 0.00 in0.0 mm
06:10 AM 73.9°F23.3°C 64.3°F17.9°C 72% Calm Calm 1.2 mph1.9 kmh 30.15 in1021.0 mb - 0.00 in0.0 mm 0.00 in0.0 mm
06:00 AM 73.1°F22.8°C 63.9°F17.7°C 73% Calm Calm -- 30.15 in1021.0 mb - 0.00 in0.0 mm 0.00 in0.0 mm
05:55 AM 72.5°F22.5°C 63.0°F17.2°C 72% 1.2 mph W1.9 kmh W 2.3 mph3.7 kmh 30.15 in1021.0 mb - 0.00 in0.0 mm 0.00 in0.0 mm
05:50 AM 72.1°F22.3°C 62.9°F17.2°C 73% 1.2 mph W1.9 kmh W 1.2 mph1.9 kmh 30.16 in1021.3 mb - 0.00 in0.0 mm 0.00 in0.0 mm
05:45 AM 71.7°F22.1°C 62.9°F17.2°C 74% 1.2 mph W1.9 kmh W 2.3 mph3.7 kmh 30.15 in1021.0 mb - 0.00 in0.0 mm 0.00 in0.0 mm
05:40 AM 71.4°F21.9°C 63.1°F17.3°C 75% 1.2 mph W1.9 kmh W 1.2 mph1.9 kmh 30.15 in1021.0 mb - 0.00 in0.0 mm 0.00 in0.0 mm
05:35 AM 71.2°F21.8°C 62.5°F16.9°C 74% Calm Calm -- 30.15 in1021.0 mb - 0.00 in0.0 mm 0.00 in0.0 mm
05:30 AM 71.0°F21.7°C 62.3°F16.8°C 74% Calm Calm -- 30.15 in1021.0 mb - 0.00 in0.0 mm 0.00 in0.0 mm
05:25 AM 70.9°F21.6°C 62.2°F16.8°C 74% Calm Calm -- 30.15 in1021.0 mb - 0.00 in0.0 mm 0.00 in0.0 mm
05:20 AM 70.8°F21.6°C 62.1°F16.7°C 74% Calm Calm 1.2 mph1.9 kmh 30.15 in1021.0 mb - 0.00 in0.0 mm 0.00 in0.0 mm
05:15 AM 70.7°F21.5°C 61.6°F16.4°C 73% 1.2 mph WNW1.9 kmh WNW 2.3 mph3.7 kmh 30.15 in1021.0 mb - 0.00 in0.0 mm 0.00 in0.0 mm
05:10 AM 70.6°F21.4°C 61.6°F16.4°C 73% Calm Calm -- 30.15 in1021.0 mb - 0.00 in0.0 mm 0.00 in0.0 mm
05:00 AM 70.7°F21.5°C 61.6°F16.4°C 73% 1.2 mph WNW1.9 kmh WNW 3.5 mph5.6 kmh 30.15 in1021.0 mb - 0.00 in0.0 mm 0.00 in0.0 mm
04:55 AM 70.8°F21.6°C 61.3°F16.3°C 72% 1.2 mph WNW1.9 kmh WNW 2.3 mph3.7 kmh 30.15 in1021.0 mb - 0.00 in0.0 mm 0.00 in0.0 mm
04:50 AM 70.9°F21.6°C 61.4°F16.3°C 72% 1.2 mph WNW1.9 kmh WNW 2.3 mph3.7 kmh 30.15 in1021.0 mb - 0.00 in0.0 mm 0.00 in0.0 mm
04:45 AM 71.0°F21.7°C 61.5°F16.4°C 72% Calm Calm 2.3 mph3.7 kmh 30.15 in1021.0 mb - 0.00 in0.0 mm 0.00 in0.0 mm
04:40 AM 71.1°F21.7°C 61.6°F16.4°C 72% Calm Calm 1.2 mph1.9 kmh 30.15 in1021.0 mb - 0.00 in0.0 mm 0.00 in0.0 mm
04:35 AM 71.2°F21.8°C 61.7°F16.5°C 72% 2.3 mph WNW3.7 kmh WNW 3.5 mph5.6 kmh 30.15 in1021.0 mb - 0.00 in0.0 mm 0.00 in0.0 mm
04:30 AM 71.4°F21.9°C 61.9°F16.6°C 72% 1.2 mph WNW1.9 kmh WNW 2.3 mph3.7 kmh 30.15 in1021.0 mb - 0.00 in0.0 mm 0.00 in0.0 mm
04:25 AM 71.6°F22.0°C 62.1°F16.7°C 72% Calm Calm 1.2 mph1.9 kmh 30.15 in1021.0 mb - 0.00 in0.0 mm 0.00 in0.0 mm
04:20 AM 71.7°F22.1°C 61.8°F16.6°C 71% 1.2 mph WNW1.9 kmh WNW 1.2 mph1.9 kmh 30.15 in1021.0 mb - 0.00 in0.0 mm 0.00 in0.0 mm
04:15 AM 71.8°F22.1°C 61.9°F16.6°C 71% Calm Calm -- 30.15 in1021.0 mb - 0.00 in0.0 mm 0.00 in0.0 mm
04:10 AM 72.0°F22.2°C 62.0°F16.7°C 71% Calm Calm -- 30.15 in1021.0 mb - 0.00 in0.0 mm 0.00 in0.0 mm
04:00 AM 72.4°F22.4°C 62.4°F16.9°C 71% 1.2 mph WNW1.9 kmh WNW 2.3 mph3.7 kmh 30.14 in1020.7 mb - 0.00 in0.0 mm 0.00 in0.0 mm
03:55 AM 72.5°F22.5°C 62.2°F16.8°C 70% 1.2 mph WNW1.9 kmh WNW 2.3 mph3.7 kmh 30.14 in1020.7 mb - 0.00 in0.0 mm 0.00 in0.0 mm
03:50 AM 72.6°F22.6°C 62.3°F16.8°C 70% Calm Calm 1.2 mph1.9 kmh 30.14 in1020.7 mb - 0.00 in0.0 mm 0.00 in0.0 mm
03:45 AM 72.8°F22.7°C 62.4°F16.9°C 70% 1.2 mph WNW1.9 kmh WNW 3.5 mph5.6 kmh 30.15 in1021.0 mb - 0.00 in0.0 mm 0.00 in0.0 mm
03:40 AM 72.9°F22.7°C 62.5°F16.9°C 70% Calm Calm 2.3 mph3.7 kmh 30.15 in1021.0 mb - 0.00 in0.0 mm 0.00 in0.0 mm
03:35 AM 73.0°F22.8°C 62.6°F17.0°C 70% 3.5 mph WNW5.6 kmh WNW 3.5 mph5.6 kmh 30.14 in1020.7 mb - 0.00 in0.0 mm 0.00 in0.0 mm
03:30 AM 73.1°F22.8°C 62.7°F17.1°C 70% 2.3 mph NW3.7 kmh NW 3.5 mph5.6 kmh 30.14 in1020.7 mb - 0.00 in0.0 mm 0.00 in0.0 mm
03:25 AM 73.1°F22.8°C 63.1°F17.3°C 71% Calm Calm -- 30.14 in1020.7 mb - 0.00 in0.0 mm 0.00 in0.0 mm
03:20 AM 73.1°F22.8°C 62.7°F17.1°C 70% 1.2 mph NW1.9 kmh NW 3.5 mph5.6 kmh 30.14 in1020.7 mb - 0.00 in0.0 mm 0.00 in0.0 mm
03:15 AM 73.2°F22.9°C 63.2°F17.3°C 71% 1.2 mph NW1.9 kmh NW 3.5 mph5.6 kmh 30.14 in1020.7 mb - 0.00 in0.0 mm 0.00 in0.0 mm
03:10 AM 73.2°F22.9°C 62.8°F17.1°C 70% 1.2 mph NW1.9 kmh NW 2.3 mph3.7 kmh 30.14 in1020.7 mb - 0.00 in0.0 mm 0.00 in0.0 mm
03:00 AM 73.4°F23.0°C 63.0°F17.2°C 70% 3.5 mph S5.6 kmh S 4.6 mph7.4 kmh 30.14 in1020.7 mb - 0.00 in0.0 mm 0.00 in0.0 mm
02:55 AM 73.5°F23.1°C 63.2°F17.3°C 70% 2.3 mph SW3.7 kmh SW 3.5 mph5.6 kmh 30.14 in1020.7 mb - 0.00 in0.0 mm 0.00 in0.0 mm
02:50 AM 73.6°F23.1°C 63.2°F17.3°C 70% 1.2 mph SW1.9 kmh SW -- 30.14 in1020.7 mb - 0.00 in0.0 mm 0.00 in0.0 mm
02:45 AM 73.8°F23.2°C 63.4°F17.4°C 70% 1.2 mph SW1.9 kmh SW 3.5 mph5.6 kmh 30.15 in1021.0 mb - 0.00 in0.0 mm 0.00 in0.0 mm
02:40 AM 74.0°F23.3°C 63.6°F17.6°C 70% 1.2 mph SW1.9 kmh SW 2.3 mph3.7 kmh 30.15 in1021.0 mb - 0.00 in0.0 mm 0.00 in0.0 mm
02:35 AM 74.2°F23.4°C 63.8°F17.7°C 70% 2.3 mph SW3.7 kmh SW 3.5 mph5.6 kmh 30.15 in1021.0 mb - 0.00 in0.0 mm 0.00 in0.0 mm
02:30 AM 74.4°F23.6°C 64.0°F17.8°C 70% 2.3 mph SW3.7 kmh SW 3.5 mph5.6 kmh 30.15 in1021.0 mb - 0.00 in0.0 mm 0.00 in0.0 mm
02:25 AM 74.5°F23.6°C 63.7°F17.6°C 69% 2.3 mph SW3.7 kmh SW 3.5 mph5.6 kmh 30.15 in1021.0 mb - 0.00 in0.0 mm 0.00 in0.0 mm
02:20 AM 74.7°F23.7°C 63.9°F17.7°C 69% 2.3 mph SW3.7 kmh SW 2.3 mph3.7 kmh 30.15 in1021.0 mb - 0.00 in0.0 mm 0.00 in0.0 mm
02:15 AM 74.8°F23.8°C 64.0°F17.8°C 69% 3.5 mph SW5.6 kmh SW 4.6 mph7.4 kmh 30.15 in1021.0 mb - 0.00 in0.0 mm 0.00 in0.0 mm
02:10 AM 74.9°F23.8°C 64.1°F17.8°C 69% Calm Calm 1.2 mph1.9 kmh 30.15 in1021.0 mb - 0.00 in0.0 mm 0.00 in0.0 mm
02:00 AM 75.5°F24.2°C 64.2°F17.9°C 68% 3.5 mph SW5.6 kmh SW 4.6 mph7.4 kmh 30.15 in1021.0 mb - 0.00 in0.0 mm 0.00 in0.0 mm
01:55 AM 75.7°F24.3°C 64.8°F18.2°C 69% 1.2 mph SW1.9 kmh SW 2.3 mph3.7 kmh 30.15 in1021.0 mb - 0.00 in0.0 mm 0.00 in0.0 mm
01:50 AM 76.0°F24.4°C 64.7°F18.2°C 68% 3.5 mph SW5.6 kmh SW 3.5 mph5.6 kmh 30.15 in1021.0 mb - 0.00 in0.0 mm 0.00 in0.0 mm
01:45 AM 76.3°F24.6°C 65.0°F18.3°C 68% 1.2 mph SW1.9 kmh SW 3.5 mph5.6 kmh 30.15 in1021.0 mb - 0.00 in0.0 mm 0.00 in0.0 mm
01:40 AM 76.5°F24.7°C 64.7°F18.2°C 67% 3.5 mph SW5.6 kmh SW 3.5 mph5.6 kmh 30.15 in1021.0 mb - 0.00 in0.0 mm 0.00 in0.0 mm
01:35 AM 76.7°F24.8°C 64.9°F18.3°C 67% 3.5 mph SW5.6 kmh SW 3.5 mph5.6 kmh 30.15 in1021.0 mb - 0.00 in0.0 mm 0.00 in0.0 mm
01:30 AM 77.0°F25.0°C 64.8°F18.2°C 66% 4.6 mph SW7.4 kmh SW 4.6 mph7.4 kmh 30.15 in1021.0 mb - 0.00 in0.0 mm 0.00 in0.0 mm
01:25 AM 77.3°F25.2°C 65.1°F18.4°C 66% 3.5 mph SW5.6 kmh SW 4.6 mph7.4 kmh 30.15 in1021.0 mb - 0.00 in0.0 mm 0.00 in0.0 mm
01:20 AM 77.5°F25.3°C 65.3°F18.5°C 66% 3.5 mph S5.6 kmh S 4.6 mph7.4 kmh 30.15 in1021.0 mb - 0.00 in0.0 mm 0.00 in0.0 mm
01:15 AM 77.7°F25.4°C 65.4°F18.6°C 66% Calm Calm 1.2 mph1.9 kmh 30.15 in1021.0 mb - 0.00 in0.0 mm 0.00 in0.0 mm
01:10 AM 77.6°F25.3°C 65.4°F18.6°C 66% Calm Calm 2.3 mph3.7 kmh 30.15 in1021.0 mb - 0.00 in0.0 mm 0.00 in0.0 mm
01:00 AM 77.5°F25.3°C 65.2°F18.4°C 66% 1.2 mph SSE1.9 kmh SSE 5.8 mph9.3 kmh 30.15 in1021.0 mb - 0.00 in0.0 mm 0.00 in0.0 mm
12:55 AM 77.4°F25.2°C 65.6°F18.7°C 67% 1.2 mph SW1.9 kmh SW 1.2 mph1.9 kmh 30.15 in1021.0 mb - 0.00 in0.0 mm 0.00 in0.0 mm
12:50 AM 77.5°F25.3°C 65.3°F18.5°C 66% 3.5 mph SW5.6 kmh SW 4.6 mph7.4 kmh 30.15 in1021.0 mb - 0.00 in0.0 mm 0.00 in0.0 mm
12:45 AM 77.8°F25.4°C 65.6°F18.7°C 66% 2.3 mph WSW3.7 kmh WSW 2.3 mph3.7 kmh 30.15 in1021.0 mb - 0.00 in0.0 mm 0.00 in0.0 mm
12:40 AM 78.2°F25.7°C 65.5°F18.6°C 65% 3.5 mph SW5.6 kmh SW 3.5 mph5.6 kmh 30.15 in1021.0 mb - 0.00 in0.0 mm 0.00 in0.0 mm
12:35 AM 78.5°F25.8°C 65.8°F18.8°C 65% 3.5 mph WSW5.6 kmh WSW 3.5 mph5.6 kmh 30.15 in1021.0 mb - 0.00 in0.0 mm 0.00 in0.0 mm
12:30 AM 78.8°F26.0°C 65.6°F18.7°C 64% 3.5 mph WSW5.6 kmh WSW 4.6 mph7.4 kmh 30.15 in1021.0 mb - 0.00 in0.0 mm 0.00 in0.0 mm
12:25 AM 79.1°F26.2°C 65.9°F18.8°C 64% 3.5 mph S5.6 kmh S 3.5 mph5.6 kmh 30.15 in1021.0 mb - 0.00 in0.0 mm 0.00 in0.0 mm
12:20 AM 79.4°F26.3°C 65.7°F18.7°C 63% 3.5 mph S5.6 kmh S 4.6 mph7.4 kmh 30.15 in1021.0 mb - 0.00 in0.0 mm 0.00 in0.0 mm
12:15 AM 79.7°F26.5°C 66.0°F18.9°C 63% Calm Calm -- 30.15 in1021.0 mb - 0.00 in0.0 mm 0.00 in0.0 mm
12:10 AM 79.9°F26.6°C 65.7°F18.7°C 62% Calm Calm 2.3 mph3.7 kmh 30.15 in1021.0 mb - 0.00 in0.0 mm 0.00 in0.0 mm
12:00 AM 80.6°F27.0°C 65.9°F18.8°C 61% 1.2 mph SE1.9 kmh SE 1.2 mph1.9 kmh 30.15 in1021.0 mb - 0.00 in0.0 mm 0.00 in0.0 mm